Time;durP1;ratioP1;P1;durP2;ratioP2;P2;SDS_P1;SDS_P2;PMS_P1;PMS_P2;Temp;Humidity;BMP_temperature;BMP_pressure;BME280_temperature;BME280_humidity;BME280_pressure;Samples;Min_cycle;Max_cycle;Signal;HPM_P1;HPM_P2
2023/10/03 00:01:01;;;;;;;;;11.20;8.40;;;;;24.17;51.01;100925.47;5054330;28;45433;-42
2023/10/03 00:03:26;;;;;;;;;8.50;6.25;;;;;24.33;51.51;100951.19;5054839;28;45539;-42
2023/10/03 00:05:54;;;;;;;;;8.25;8.25;;;;;24.24;51.68;100936.28;5053883;28;46556;-41
2023/10/03 00:08:20;;;;;;;;;10.60;8.60;;;;;24.27;51.20;100944.78;5054227;28;45462;-44
2023/10/03 00:10:45;;;;;;;;;12.00;9.00;;;;;24.26;51.31;100950.44;5054623;28;45385;-44
2023/10/03 00:13:15;;;;;;;;;10.50;8.00;;;;;24.24;51.88;100952.56;5053913;28;45416;-43
2023/10/03 00:15:43;;;;;;;;;11.00;9.60;;;;;24.21;51.83;100951.13;5054485;28;45542;-43
2023/10/03 00:18:13;;;;;;;;;12.80;9.20;;;;;24.18;52.36;100948.06;5057799;28;45403;-44
2023/10/03 00:20:39;;;;;;;;;10.60;7.80;;;;;24.16;52.49;100948.28;5057586;28;45359;-44
2023/10/03 00:23:05;;;;;;;;;11.00;9.00;;;;;24.11;51.59;100938.13;5057788;28;45888;-42
2023/10/03 00:25:30;;;;;;;;;10.25;9.25;;;;;24.10;52.38;100944.63;5057585;28;46315;-43
2023/10/03 00:28:00;;;;;;;;;8.00;7.50;;;;;24.10;52.50;100949.19;5057190;28;45490;-42
2023/10/03 00:30:30;;;;;;;;;11.40;8.40;;;;;24.06;52.36;100946.13;5056697;28;45254;-40
2023/10/03 00:33:02;;;;;;;;;11.60;8.60;;;;;24.05;52.94;100949.06;5036313;28;45416;-42
2023/10/03 00:35:28;;;;;;;;;8.60;8.00;;;;;24.00;53.01;100947.03;5037534;28;47012;-41
2023/10/03 00:37:54;;;;;;;;;11.75;10.75;;;;;23.88;53.13;100919.00;5048039;28;45402;-42
2023/10/03 00:42:49;;;;;;;;;12.80;11.00;;;;;23.99;53.55;100955.44;5057361;28;45256;-42
2023/10/03 00:45:21;;;;;;;;;10.60;10.60;;;;;23.98;53.35;100970.91;5057432;28;45452;-44
2023/10/03 00:47:48;;;;;;;;;10.60;7.40;;;;;23.92;53.33;100965.56;5055778;28;45529;-45
2023/10/03 00:50:20;;;;;;;;;6.60;5.60;;;;;23.94;53.63;100975.16;5057079;28;45348;-44
2023/10/03 00:53:04;;;;;;;;;15.00;9.80;;;;;23.92;54.02;100981.88;5057490;28;45567;-45
2023/10/03 00:55:32;;;;;;;;;10.20;10.20;;;;;23.89;53.91;100975.00;5056692;28;45499;-43
2023/10/03 00:58:07;;;;;;;;;8.40;8.40;;;;;23.82;53.85;100974.25;5056821;28;45421;-44
2023/10/03 01:00:37;;;;;;;;;10.40;8.20;;;;;23.82;53.53;100979.69;5056964;28;45985;-45
2023/10/03 01:03:03;;;;;;;;;10.00;10.00;;;;;23.80;54.02;100982.63;5057731;28;45522;-46
2023/10/03 01:05:29;;;;;;;;;13.20;10.40;;;;;23.79;54.28;100982.88;5056406;28;47370;-44
2023/10/03 01:07:54;;;;;;;;;12.25;10.00;;;;;23.76;54.31;100984.13;5057161;28;45517;-44
2023/10/03 01:10:21;;;;;;;;;11.20;10.60;;;;;23.75;54.57;100987.91;5037412;28;45916;-44
2023/10/03 01:12:48;;;;;;;;;13.50;11.50;;;;;23.73;54.82;100979.19;5034444;28;45439;-43
2023/10/03 01:15:16;;;;;;;;;15.20;12.60;;;;;23.72;55.23;100988.38;5056182;28;45375;-43
2023/10/03 01:17:44;;;;;;;;;10.80;9.00;;;;;23.71;54.68;100986.72;5056238;28;45554;-45
2023/10/03 01:20:17;;;;;;;;;11.60;9.60;;;;;23.70;55.07;100986.94;5056194;28;45585;-45
2023/10/03 01:22:46;;;;;;;;;10.60;10.60;;;;;23.68;55.26;100991.75;5057095;28;45232;-42
2023/10/03 01:25:12;;;;;;;;;9.80;9.60;;;;;23.67;55.30;100995.53;5050266;28;46320;-45
2023/10/03 01:27:38;;;;;;;;;11.40;10.00;;;;;23.63;55.32;101006.81;5047192;28;45541;-45
2023/10/03 01:30:06;;;;;;;;;11.60;11.60;;;;;23.64;56.05;101010.41;5057880;28;45391;-44
2023/10/03 01:32:36;;;;;;;;;10.40;10.00;;;;;23.61;55.85;101002.69;5058683;28;45277;-42
2023/10/03 01:35:08;;;;;;;;;9.80;9.00;;;;;23.61;55.83;100999.97;5058125;28;46104;-44
2023/10/03 01:37:33;;;;;;;;;13.60;11.60;;;;;23.58;56.25;101009.41;5065943;27;45372;-43
2023/10/03 01:39:59;;;;;;;;;13.00;10.50;;;;;23.56;56.68;101003.38;5078606;28;45511;-44
2023/10/03 01:42:24;;;;;;;;;12.00;11.00;;;;;23.47;56.69;100993.88;5078992;28;45231;-44
2023/10/03 01:44:50;;;;;;;;;13.75;10.00;;;;;23.53;57.29;101009.25;5078442;27;45980;-46
2023/10/03 01:47:15;;;;;;;;;12.40;11.60;;;;;23.53;57.76;101011.13;5078397;28;45484;-46
2023/10/03 01:49:42;;;;;;;;;18.75;16.00;;;;;23.49;58.25;101016.19;5078468;27;45411;-45
2023/10/03 01:52:07;;;;;;;;;22.20;13.60;;;;;23.46;58.11;101013.91;5078537;28;45426;-44
2023/10/03 01:54:34;;;;;;;;;9.75;9.75;;;;;23.42;58.47;101010.00;5078382;28;46339;-42
2023/10/03 01:57:00;;;;;;;;;14.20;13.40;;;;;23.39;59.02;101014.00;5078103;27;45486;-45
2023/10/03 01:59:26;;;;;;;;;13.25;13.00;;;;;23.36;59.58;101013.63;5078422;28;45417;-41
2023/10/03 02:01:51;;;;;;;;;12.50;12.00;;;;;23.37;60.40;101012.56;5078439;27;45400;-44
2023/10/03 02:04:16;;;;;;;;;15.75;13.50;;;;;23.36;59.88;101010.91;5078079;27;45926;-43
2023/10/03 02:06:42;;;;;;;;;15.00;15.00;;;;;23.34;60.31;101007.56;5078054;27;45343;-43
2023/10/03 02:09:08;;;;;;;;;17.50;16.00;;;;;23.31;59.49;101008.03;5078212;27;45304;-44
2023/10/03 02:11:34;;;;;;;;;16.50;14.25;;;;;23.29;60.52;101010.13;5078089;28;45232;-45
2023/10/03 02:14:02;;;;;;;;;16.25;15.00;;;;;23.28;61.16;101016.63;5077867;28;46328;-46
2023/10/03 02:16:28;;;;;;;;;16.20;16.20;;;;;23.26;60.62;101025.00;5077960;27;45598;-45
2023/10/03 02:18:55;;;;;;;;;21.25;16.50;;;;;23.23;60.10;101024.59;5078307;27;45410;-44
2023/10/03 02:21:21;;;;;;;;;19.50;18.25;;;;;23.22;61.58;101012.06;5077908;28;45409;-45
2023/10/03 02:23:48;;;;;;;;;16.50;15.75;;;;;23.22;61.65;101015.63;5077746;28;52491;-48
2023/10/03 02:26:13;;;;;;;;;21.00;15.60;;;;;23.20;61.66;101015.00;5059662;28;45475;-46
2023/10/03 02:28:40;;;;;;;;;20.00;15.00;;;;;23.17;62.03;101012.75;5078022;28;45385;-44
2023/10/03 02:31:09;;;;;;;;;14.25;13.75;;;;;23.14;61.90;101024.88;5078174;27;45359;-45
2023/10/03 02:33:41;;;;;;;;;16.25;15.00;;;;;23.14;61.00;101026.78;5077063;28;45338;-45
2023/10/03 02:36:08;;;;;;;;;21.80;18.80;;;;;23.11;61.96;101011.75;5077359;27;45465;-43
2023/10/03 02:38:36;;;;;;;;;16.80;15.40;;;;;23.11;62.39;101030.75;5077672;27;45384;-46
2023/10/03 02:41:01;;;;;;;;;17.25;14.75;;;;;23.07;62.31;101021.41;5077064;28;45414;-43
2023/10/03 02:43:29;;;;;;;;;17.50;17.00;;;;;23.07;62.49;101004.28;5077454;28;45655;-42
2023/10/03 02:45:54;;;;;;;;;15.20;14.80;;;;;23.08;62.29;101014.09;5077815;28;45316;-43
2023/10/03 02:48:21;;;;;;;;;16.75;13.75;;;;;23.07;62.57;101015.97;5077694;27;45344;-43
2023/10/03 02:50:48;;;;;;;;;19.50;15.50;;;;;23.05;62.07;101009.94;5076729;28;45323;-43
2023/10/03 02:53:23;;;;;;;;;17.00;16.50;;;;;23.02;61.78;101021.25;5077400;28;45570;-45
2023/10/03 02:55:54;;;;;;;;;16.40;13.40;;;;;22.99;62.14;101023.56;5077306;28;45293;-45
2023/10/03 02:58:20;;;;;;;;;15.80;14.80;;;;;22.96;62.40;101030.25;5077720;27;45288;-48
2023/10/03 03:00:47;;;;;;;;;18.25;16.00;;;;;22.96;61.95;101032.13;5077575;28;45461;-46
2023/10/03 03:03:14;;;;;;;;;18.25;15.75;;;;;22.94;61.90;101029.66;5077318;28;45974;-44
2023/10/03 03:05:41;;;;;;;;;12.80;12.20;;;;;22.89;62.25;101021.31;5077279;28;45323;-42
2023/10/03 03:10:55;;;;;;;;;17.75;14.75;;;;;22.88;61.62;101033.19;5077394;28;45477;-45
2023/10/03 03:13:25;;;;;;;;;15.00;12.25;;;;;22.87;62.19;101029.66;5077118;27;45654;-45
2023/10/03 03:15:53;;;;;;;;;19.60;13.80;;;;;22.86;62.64;101035.31;5077138;27;45312;-43
2023/10/03 03:18:24;;;;;;;;;16.00;12.80;;;;;22.85;62.21;101039.91;5077394;28;45466;-45
2023/10/03 03:20:53;;;;;;;;;18.25;14.00;;;;;22.79;61.96;101034.53;5077433;28;45388;-45
2023/10/03 03:23:19;;;;;;;;;13.50;13.25;;;;;22.83;62.33;101036.59;5077043;28;45439;-44
2023/10/03 03:25:45;;;;;;;;;13.80;12.20;;;;;22.77;62.02;101017.66;5077134;28;45448;-43
2023/10/03 03:28:13;;;;;;;;;11.00;11.00;;;;;22.78;62.22;101033.72;5077312;27;45347;-43
2023/10/03 03:30:45;;;;;;;;;17.00;14.00;;;;;22.76;62.04;101032.28;5077316;28;45428;-43
2023/10/03 03:33:19;;;;;;;;;13.80;12.20;;;;;22.79;62.02;101039.94;5076877;28;46305;-43
2023/10/03 03:35:46;;;;;;;;;11.40;11.20;;;;;22.79;62.26;101056.22;5076806;28;45433;-43
2023/10/03 03:38:18;;;;;;;;;12.00;10.00;;;;;22.78;61.89;101049.16;5076879;27;45519;-44
2023/10/03 03:40:47;;;;;;;;;12.50;12.50;;;;;22.72;62.08;101037.31;5077015;28;45369;-46
2023/10/03 03:43:16;;;;;;;;;14.00;11.60;;;;;22.73;61.98;101038.97;5076935;28;46021;-45
2023/10/03 03:45:45;;;;;;;;;10.20;9.80;;;;;22.75;61.92;101041.44;5076767;28;45285;-44
2023/10/03 03:48:10;;;;;;;;;11.20;9.00;;;;;22.60;61.64;101020.91;5076752;27;45441;-44
2023/10/03 03:50:37;;;;;;;;;13.50;10.25;;;;;22.74;61.92;101043.31;5077441;28;45310;-45
2023/10/03 03:53:03;;;;;;;;;14.80;10.40;;;;;22.74;61.68;101054.19;5080253;27;46181;-46
2023/10/03 03:55:31;;;;;;;;;11.50;10.00;;;;;22.71;61.45;101053.78;5080175;28;45530;-44
2023/10/03 03:57:59;;;;;;;;;12.40;8.80;;;;;22.73;61.71;101051.69;5080291;27;45312;-42
2023/10/03 04:00:26;;;;;;;;;12.20;11.00;;;;;22.71;61.60;101059.19;5080314;27;45366;-45
2023/10/03 04:02:51;;;;;;;;;9.80;9.80;;;;;22.66;61.61;101066.13;5079887;28;46097;-45
2023/10/03 04:05:18;;;;;;;;;9.00;9.00;;;;;22.69;61.70;101083.84;5061141;28;45760;-45
2023/10/03 04:07:44;;;;;;;;;10.00;9.00;;;;;22.66;61.78;101076.97;5080049;28;45533;-43
2023/10/03 04:10:10;;;;;;;;;12.00;12.00;;;;;22.63;62.08;101074.72;5080239;28;45472;-43
2023/10/03 04:12:41;;;;;;;;;13.25;11.25;;;;;22.67;62.10;101084.06;5079741;28;46234;-43
2023/10/03 04:15:15;;;;;;;;;10.40;10.20;;;;;22.67;62.12;101070.50;5079889;27;45399;-43
2023/10/03 04:17:41;;;;;;;;;9.40;9.40;;;;;22.67;61.73;101078.66;5079949;28;45419;-43
2023/10/03 04:20:30;;;;;;;;;15.50;12.25;;;;;22.58;62.29;101062.84;5080207;27;45439;-45
2023/10/03 04:22:58;;;;;;;;;9.00;9.00;;;;;22.60;62.42;101088.69;5079839;27;45390;-44
2023/10/03 04:25:24;;;;;;;;;16.20;13.40;;;;;22.62;62.15;101100.13;5079732;28;45384;-47
2023/10/03 04:27:52;;;;;;;;;11.75;11.75;;;;;22.58;62.03;101101.63;5079761;28;45263;-44
2023/10/03 04:30:21;;;;;;;;;12.25;12.00;;;;;22.58;62.68;101119.78;5079852;28;45419;-44
2023/10/03 04:32:47;;;;;;;;;12.00;9.20;;;;;22.57;62.45;101121.66;5079484;27;46253;-45
2023/10/03 04:35:18;;;;;;;;;10.00;8.20;;;;;22.49;62.71;101104.81;5079714;28;45577;-45
2023/10/03 04:37:44;;;;;;;;;11.00;11.00;;;;;22.51;62.68;101103.56;5079477;28;45419;-44
2023/10/03 04:40:21;;;;;;;;;11.75;10.75;;;;;22.54;62.59;101110.41;5079782;28;45383;-46
2023/10/03 04:42:50;;;;;;;;;12.00;9.00;;;;;22.53;62.69;101109.59;5079450;28;45305;-45
2023/10/03 04:45:18;;;;;;;;;13.40;10.80;;;;;22.38;62.66;101090.06;5079366;27;45365;-46
2023/10/03 04:47:45;;;;;;;;;9.60;8.80;;;;;22.47;62.36;101115.88;5079388;27;45362;-46
2023/10/03 04:50:11;;;;;;;;;9.00;9.00;;;;;22.38;62.64;101109.06;5079769;28;45348;-44
2023/10/03 04:52:41;;;;;;;;;10.40;8.00;;;;;22.46;62.44;101126.91;5079391;27;45323;-45
2023/10/03 04:55:07;;;;;;;;;13.00;9.80;;;;;22.44;63.01;101135.28;5079107;27;45308;-45
2023/10/03 04:57:33;;;;;;;;;13.80;10.80;;;;;22.44;63.07;101135.28;5079302;27;45410;-47
2023/10/03 05:00:04;;;;;;;;;9.00;9.00;;;;;22.44;62.91;101134.44;5079580;27;45410;-44
2023/10/03 05:02:30;;;;;;;;;10.00;10.00;;;;;22.39;63.27;101124.25;5077882;28;47256;-48
2023/10/03 05:04:55;;;;;;;;;10.75;9.50;;;;;22.31;63.61;101113.66;5079083;28;45367;-47
2023/10/03 05:07:23;;;;;;;;;10.50;9.50;;;;;22.42;63.24;101131.97;5079136;27;45287;-47
2023/10/03 05:09:50;;;;;;;;;10.25;9.00;;;;;22.44;63.18;101131.75;5079266;27;45419;-45
2023/10/03 05:12:15;;;;;;;;;9.50;9.50;;;;;22.45;63.14;101127.97;5078939;28;47080;-43
2023/10/03 05:14:41;;;;;;;;;11.50;10.25;;;;;22.37;63.53;101129.06;5079166;27;45432;-46
2023/10/03 05:17:07;;;;;;;;;11.25;11.25;;;;;22.38;63.44;101144.28;5078125;27;45459;-45
2023/10/03 05:19:33;;;;;;;;;10.00;9.25;;;;;22.37;63.72;101148.84;5078140;27;45406;-45
2023/10/03 05:21:59;;;;;;;;;10.25;9.75;;;;;22.37;63.25;101148.03;5078758;28;46231;-47
2023/10/03 05:24:24;;;;;;;;;8.00;8.00;;;;;22.35;63.54;101144.72;5078826;27;45264;-44
2023/10/03 05:26:51;;;;;;;;;8.75;7.75;;;;;22.30;63.72;101149.94;5078752;28;45323;-44
2023/10/03 05:29:17;;;;;;;;;9.50;8.50;;;;;22.27;63.84;101151.19;5079014;27;45309;-44
2023/10/03 05:31:42;;;;;;;;;10.75;9.25;;;;;22.28;63.51;101165.56;5078601;27;46062;-45
2023/10/03 05:34:08;;;;;;;;;8.75;8.25;;;;;22.27;63.59;101174.75;5060535;28;45463;-45
2023/10/03 05:36:33;;;;;;;;;8.00;8.00;;;;;22.21;64.03;101171.03;5078668;28;45378;-44
2023/10/03 05:38:59;;;;;;;;;8.25;7.50;;;;;22.19;63.77;101170.41;5060514;28;45624;-44
2023/10/03 05:41:24;;;;;;;;;8.00;8.00;;;;;22.17;64.22;101181.47;5078177;27;46664;-45
2023/10/03 05:43:50;;;;;;;;;10.20;8.60;;;;;22.08;64.46;101173.72;5078213;28;45479;-46
2023/10/03 05:46:16;;;;;;;;;9.00;8.00;;;;;22.15;64.46;101185.41;5078749;28;45366;-47
2023/10/03 05:48:45;;;;;;;;;12.25;8.25;;;;;22.12;64.62;101180.38;5078676;27;45430;-47
2023/10/03 05:51:11;;;;;;;;;7.25;7.25;;;;;22.07;64.97;101189.16;5078321;28;46101;-46
2023/10/03 05:53:36;;;;;;;;;9.00;8.60;;;;;22.00;65.03;101173.97;5077743;28;45470;-46
2023/10/03 05:56:04;;;;;;;;;11.00;9.25;;;;;21.99;65.22;101167.69;5078412;28;45317;-44
2023/10/03 05:58:30;;;;;;;;;9.75;8.00;;;;;22.00;65.54;101188.34;5078476;28;45338;-47
2023/10/03 06:00:56;;;;;;;;;9.25;8.75;;;;;21.97;65.43;101196.06;5078108;28;46470;-48
2023/10/03 06:03:21;;;;;;;;;9.75;9.25;;;;;21.97;65.74;101205.00;5078311;28;45206;-43
2023/10/03 06:05:46;;;;;;;;;9.50;8.50;;;;;22.00;65.70;101214.63;5078363;28;45414;-45
2023/10/03 06:08:12;;;;;;;;;8.00;6.25;;;;;21.99;65.89;101177.69;5078566;28;45354;-45
2023/10/03 06:10:40;;;;;;;;;8.00;7.00;;;;;21.93;66.04;101188.34;5059657;28;46215;-45
2023/10/03 06:13:09;;;;;;;;;7.00;7.00;;;;;21.94;67.09;101183.75;5077956;28;45459;-45
2023/10/03 06:15:36;;;;;;;;;9.00;7.50;;;;;21.95;66.15;101182.72;5077735;27;45320;-43
2023/10/03 06:18:02;;;;;;;;;11.50;9.00;;;;;21.92;66.91;101183.97;5078336;27;45448;-45
2023/10/03 06:20:27;;;;;;;;;9.25;8.00;;;;;21.90;66.77;101185.22;5077975;28;45228;-42
2023/10/03 06:22:54;;;;;;;;;10.00;7.00;;;;;21.90;66.75;101196.88;5078122;28;45426;-46
2023/10/03 06:25:19;;;;;;;;;10.20;9.40;;;;;21.86;67.12;101197.53;5078169;27;45363;-45
2023/10/03 06:27:44;;;;;;;;;10.25;8.75;;;;;21.83;67.39;101204.22;5077930;27;45476;-45
2023/10/03 06:30:10;;;;;;;;;10.50;9.00;;;;;21.81;67.37;101197.31;5077557;28;46732;-46
2023/10/03 06:32:35;;;;;;;;;9.75;8.50;;;;;21.79;67.46;101191.28;5077830;28;45233;-46
2023/10/03 06:35:05;;;;;;;;;10.75;9.50;;;;;21.74;67.54;101196.47;5077924;27;45223;-46
2023/10/03 06:37:32;;;;;;;;;14.50;11.00;;;;;21.70;68.09;101189.81;5078042;28;45269;-46
2023/10/03 06:39:57;;;;;;;;;7.00;7.00;;;;;21.67;67.72;101201.91;5077556;28;47187;-46
2023/10/03 06:42:23;;;;;;;;;12.25;9.00;;;;;21.61;68.05;101191.91;5077602;28;45195;-45
2023/10/03 06:44:49;;;;;;;;;15.00;9.75;;;;;21.56;68.17;101194.41;5077679;27;45245;-47
2023/10/03 06:47:14;;;;;;;;;11.25;9.00;;;;;21.49;68.43;101190.88;5077825;27;45594;-45
2023/10/03 06:49:40;;;;;;;;;13.00;11.25;;;;;21.47;68.31;101192.97;5077366;28;46431;-44
2023/10/03 06:52:05;;;;;;;;;11.00;11.00;;;;;21.50;68.13;101203.38;5077519;27;45379;-41
2023/10/03 06:54:31;;;;;;;;;13.50;11.00;;;;;21.49;68.43;101196.28;5077588;28;45342;-43
2023/10/03 06:56:56;;;;;;;;;14.00;11.00;;;;;21.49;69.12;101202.56;5077827;28;45446;-43
2023/10/03 06:59:21;;;;;;;;;13.75;12.00;;;;;21.47;69.27;101203.78;5077202;27;45804;-43
2023/10/03 07:01:47;;;;;;;;;11.00;10.50;;;;;21.37;69.16;101190.66;5077310;28;45393;-44
2023/10/03 07:04:12;;;;;;;;;21.25;11.25;;;;;21.51;69.04;101218.56;5076399;28;45461;-44
2023/10/03 07:06:38;;;;;;;;;12.50;9.25;;;;;21.53;69.29;101225.47;5077549;27;45558;-44
2023/10/03 07:09:07;;;;;;;;;11.75;10.00;;;;;21.51;69.27;101238.34;5076975;28;46828;-44
2023/10/03 07:11:32;;;;;;;;;8.60;8.40;;;;;21.46;69.55;101251.69;5077066;27;45256;-45
2023/10/03 07:13:58;;;;;;;;;13.00;10.00;;;;;21.44;69.32;101264.56;5076202;28;45535;-42
2023/10/03 07:16:24;;;;;;;;;11.75;10.25;;;;;21.35;69.65;101268.50;5077341;28;45240;-42
2023/10/03 07:18:49;;;;;;;;;8.00;6.25;;;;;21.39;69.29;101286.84;5076771;28;46010;-45
2023/10/03 07:21:18;;;;;;;;;10.75;8.75;;;;;21.40;69.98;101290.38;5077008;28;45446;-46
2023/10/03 07:23:44;;;;;;;;;9.75;9.75;;;;;21.41;69.72;101287.47;5077127;27;45241;-45
2023/10/03 07:26:09;;;;;;;;;8.75;8.75;;;;;21.36;70.37;101286.41;5078187;28;45362;-44
2023/10/03 07:28:38;;;;;;;;;11.50;10.75;;;;;21.35;71.34;101285.56;5061456;28;45430;-45
2023/10/03 07:31:07;;;;;;;;;9.00;8.40;;;;;21.35;69.60;101290.16;5080483;27;45292;-42
2023/10/03 07:33:32;;;;;;;;;13.75;10.25;;;;;21.33;71.75;101290.38;5080517;27;45365;-42
2023/10/03 07:36:02;;;;;;;;;11.50;11.50;;;;;21.33;71.43;101294.97;5080706;28;45351;-43
2023/10/03 07:38:28;;;;;;;;;12.25;6.50;;;;;21.28;71.65;101283.84;5079825;28;45489;-40
2023/10/03 07:40:53;;;;;;;;;10.00;8.00;;;;;21.25;71.89;101292.41;5080341;27;45405;-42
2023/10/03 07:43:19;;;;;;;;;13.00;10.00;;;;;21.23;72.01;101270.94;5080405;27;45473;-42
2023/10/03 07:45:44;;;;;;;;;10.25;7.25;;;;;21.25;71.17;101258.06;5080548;28;45411;-44
2023/10/03 07:48:10;;;;;;;;;12.75;9.50;;;;;21.36;71.42;101283.69;5079990;27;46866;-43
2023/10/03 07:50:37;;;;;;;;;9.00;8.00;;;;;21.21;71.15;101269.50;5080018;27;45247;-43
2023/10/03 07:53:05;;;;;;;;;11.00;9.75;;;;;21.32;71.36;101290.56;5080296;27;45396;-45
2023/10/03 07:55:35;;;;;;;;;12.50;10.00;;;;;21.34;71.36;101291.22;5080217;27;45402;-47
2023/10/03 07:58:00;;;;;;;;;9.50;9.25;;;;;21.34;71.65;101300.16;5079259;27;45404;-45
2023/10/03 08:00:26;;;;;;;;;9.75;9.75;;;;;21.36;71.24;101316.19;5079952;27;45312;-47
2023/10/03 08:02:52;;;;;;;;;9.50;9.25;;;;;21.33;71.56;101316.59;5080217;27;45266;-45
2023/10/03 08:05:18;;;;;;;;;10.75;9.25;;;;;21.26;71.91;101305.72;5080252;27;45540;-46
2023/10/03 08:07:50;;;;;;;;;10.75;9.00;;;;;21.27;72.24;101322.78;5079632;27;45856;-47
2023/10/03 08:10:17;;;;;;;;;9.60;9.00;;;;;21.27;71.96;101331.72;5079799;27;45448;-44
2023/10/03 08:12:43;;;;;;;;;11.00;9.25;;;;;21.29;72.48;101331.56;5080110;27;45438;-42
2023/10/03 08:15:17;;;;;;;;;11.25;9.00;;;;;21.26;72.38;101327.38;5079933;28;45561;-44
2023/10/03 08:17:53;;;;;;;;;11.00;8.00;;;;;21.35;71.78;101338.88;5079780;28;45273;-43
2023/10/03 08:20:20;;;;;;;;;11.20;9.40;;;;;21.34;71.80;101337.22;5078946;28;45409;-45
2023/10/03 08:22:51;;;;;;;;;13.50;10.00;;;;;21.38;72.34;101342.00;5079681;28;45392;-43
2023/10/03 08:25:21;;;;;;;;;10.25;9.50;;;;;21.41;71.80;101344.31;5079680;27;45558;-41
2023/10/03 08:27:51;;;;;;;;;9.25;7.75;;;;;21.45;71.95;101344.75;5079460;28;46084;-43
2023/10/03 08:30:30;;;;;;;;;8.00;6.80;;;;;21.50;71.63;101391.00;5079480;27;45617;-46
2023/10/03 08:32:57;;;;;;;;;3.20;3.20;;;;;21.58;67.92;101407.06;5079732;28;45413;-45
2023/10/03 08:35:34;;;;;;;;;6.50;5.00;;;;;21.59;67.72;101414.13;5061896;28;45224;-41
2023/10/03 08:38:04;;;;;;;;;4.80;4.80;;;;;21.57;67.22;101427.00;5078962;28;46030;-41
2023/10/03 08:40:35;;;;;;;;;6.20;4.80;;;;;21.62;67.37;101438.09;5079598;27;45441;-43
2023/10/03 08:43:03;;;;;;;;;4.80;4.60;;;;;21.68;66.90;101434.56;5078334;27;45357;-43
2023/10/03 08:45:31;;;;;;;;;5.25;4.00;;;;;21.73;66.20;101428.53;5079708;27;45398;-45
2023/10/03 08:48:05;;;;;;;;;5.40;4.40;;;;;21.85;66.18;101439.63;5079723;28;46125;-42
2023/10/03 08:50:37;;;;;;;;;3.40;3.40;;;;;21.92;65.55;101445.91;5079451;28;45602;-43
2023/10/03 08:53:12;;;;;;;;;4.40;3.00;;;;;21.95;65.37;101464.44;5080074;27;45359;-41
2023/10/03 08:55:45;;;;;;;;;4.00;4.00;;;;;21.94;65.11;101462.78;5079559;27;45370;-45
2023/10/03 08:58:15;;;;;;;;;4.00;4.00;;;;;21.96;64.73;101468.00;5079020;28;45970;-45
2023/10/03 09:00:46;;;;;;;;;5.20;5.00;;;;;21.96;64.90;101479.66;5078961;27;45444;-45
2023/10/03 09:03:13;;;;;;;;;3.80;3.80;;;;;22.01;64.71;101470.94;5079360;27;45502;-43
2023/10/03 09:05:42;;;;;;;;;3.80;3.00;;;;;22.08;64.81;101474.47;5079320;27;45379;-41
2023/10/03 09:08:09;;;;;;;;;6.00;4.20;;;;;22.05;64.20;101467.59;5078954;27;45358;-42
2023/10/03 09:10:50;;;;;;;;;7.20;6.00;;;;;22.14;64.19;101498.09;5079080;27;45380;-42
2023/10/03 09:13:23;;;;;;;;;3.80;3.60;;;;;22.14;64.41;101498.09;5079273;28;45480;-43
2023/10/03 09:15:59;;;;;;;;;7.80;4.20;;;;;22.14;64.42;101484.53;5079062;27;45275;-40
2023/10/03 09:18:28;;;;;;;;;5.20;4.00;;;;;22.28;64.04;101512.50;5078666;28;45476;-45
2023/10/03 09:20:59;;;;;;;;;3.60;3.00;;;;;22.22;62.71;101513.31;5078695;28;45213;-42
2023/10/03 09:23:27;;;;;;;;;4.80;4.60;;;;;22.15;63.29;101503.28;5078954;28;45397;-43
2023/10/03 09:25:55;;;;;;;;;6.00;4.20;;;;;22.21;62.83;101523.34;5079035;27;45393;-45
2023/10/03 09:28:27;;;;;;;;;3.60;2.60;;;;;22.46;62.20;101531.72;5078723;28;46235;-44
2023/10/03 09:30:55;;;;;;;;;3.20;3.20;;;;;22.65;61.12;101525.47;5078338;27;45220;-43
2023/10/03 09:33:22;;;;;;;;;3.40;3.40;;;;;23.00;59.99;101532.59;5078700;28;45317;-47
2023/10/03 09:36:00;;;;;;;;;5.00;3.40;;;;;23.32;58.34;101529.03;5078985;28;45844;-45
2023/10/03 09:38:42;;;;;;;;;2.20;2.00;;;;;23.59;58.25;101556.09;5078386;27;45501;-44
2023/10/03 09:41:08;;;;;;;;;6.40;2.00;;;;;23.78;56.87;101560.69;5078464;27;45597;-42
2023/10/03 09:43:35;;;;;;;;;3.00;3.00;;;;;24.02;56.77;101561.88;5078753;28;45343;-44
2023/10/03 09:46:01;;;;;;;;;4.20;2.20;;;;;24.18;56.14;101562.41;5078758;27;45442;-44
2023/10/03 09:48:26;;;;;;;;;3.00;3.00;;;;;24.39;55.45;101576.53;5077540;28;47281;-44
2023/10/03 09:50:53;;;;;;;;;4.00;2.75;;;;;24.42;54.87;101575.28;5078397;28;45392;-46
2023/10/03 09:53:19;;;;;;;;;3.40;1.00;;;;;24.36;54.22;101571.50;5078346;27;45478;-45
2023/10/03 09:55:47;;;;;;;;;4.40;2.80;;;;;24.48;54.28;101592.59;5078550;28;45362;-45
2023/10/03 09:58:24;;;;;;;;;4.60;2.40;;;;;24.46;54.73;101581.13;5078280;28;46343;-44
2023/10/03 10:00:55;;;;;;;;;5.20;2.00;;;;;24.56;52.82;101603.22;5078102;28;45410;-42
2023/10/03 10:03:33;;;;;;;;;1.80;1.80;;;;;24.69;52.82;101607.75;5078097;27;45289;-41
2023/10/03 10:06:28;;;;;;;;;2.60;2.00;;;;;24.73;52.40;101608.97;5078428;27;45423;-45
2023/10/03 10:09:13;;;;;;;;;3.00;3.00;;;;;24.69;51.77;101611.28;5077886;27;46284;-44
2023/10/03 10:12:25;;;;;;;;;2.00;2.00;;;;;24.81;51.84;101622.31;5077857;27;45513;-53
2023/10/03 10:17:51;;;;;;;;;4.00;1.60;;;;;24.86;51.10;101634.22;4995963;28;45319;-44
2023/10/03 10:20:17;;;;;;;;;3.00;2.00;;;;;24.77;50.53;101634.69;4995350;28;46365;-44
2023/10/03 10:22:58;;;;;;;;;4.00;2.80;;;;;24.68;51.29;101642.28;4995698;28;45509;-45
2023/10/03 10:25:27;;;;;;;;;2.00;2.00;;;;;24.79;50.77;101648.94;4995821;28;45450;-46
2023/10/03 10:28:05;;;;;;;;;2.40;2.40;;;;;24.95;50.88;101648.41;4995754;28;45374;-45
2023/10/03 10:30:31;;;;;;;;;5.00;2.00;;;;;25.09;50.37;101652.72;4995216;28;46159;-46
2023/10/03 10:33:15;;;;;;;;;4.80;3.20;;;;;25.34;49.88;101669.06;4995336;28;45480;-44
2023/10/03 10:35:54;;;;;;;;;3.00;2.20;;;;;25.71;48.87;101663.72;4995671;28;45468;-45
2023/10/03 10:38:40;;;;;;;;;2.80;1.80;;;;;26.17;47.71;101665.13;4995427;28;45442;-45
2023/10/03 10:41:11;;;;;;;;;3.00;3.00;;;;;26.91;46.37;101671.31;4955936;28;47259;-43
2023/10/03 10:44:06;;;;;;;;;2.00;2.00;;;;;27.83;45.47;101671.69;4956143;28;45482;-45
2023/10/03 10:46:33;;;;;;;;;2.00;2.00;;;;;28.67;42.27;101670.44;4955962;28;45406;-46
2023/10/03 10:48:58;;;;;;;;;4.60;2.40;;;;;29.06;41.88;101685.97;4956205;28;45396;-45
2023/10/03 10:51:25;;;;;;;;;3.00;2.00;;;;;29.19;41.11;101684.00;4973303;28;45417;-45
2023/10/03 10:53:51;;;;;;;;;2.80;1.60;;;;;29.17;40.91;101697.13;4978624;28;46273;-44
2023/10/03 10:56:17;;;;;;;;;4.80;1.60;;;;;29.01;40.01;101694.13;4995197;28;45462;-44
2023/10/03 10:58:50;;;;;;;;;3.20;2.00;;;;;28.65;40.64;101702.69;4995254;28;45539;-42
2023/10/03 11:01:20;;;;;;;;;6.40;3.60;;;;;28.86;39.57;101710.22;4994634;28;46158;-44
2023/10/03 11:03:47;;;;;;;;;2.80;2.80;;;;;28.65;39.56;101700.78;4994858;28;45385;-45
2023/10/03 11:06:17;;;;;;;;;3.40;2.00;;;;;29.03;39.54;101700.19;4994850;28;45464;-44
2023/10/03 11:08:50;;;;;;;;;2.60;2.60;;;;;29.10;39.75;101724.69;4995269;28;45483;-46
2023/10/03 11:11:16;;;;;;;;;3.00;2.40;;;;;28.89;39.89;101717.97;4994826;28;46386;-46
2023/10/03 11:13:46;;;;;;;;;4.40;3.80;;;;;30.21;37.56;101718.50;4995185;28;45490;-47
2023/10/03 11:16:20;;;;;;;;;4.00;2.00;;;;;31.76;35.68;101704.16;4995002;28;45447;-45
2023/10/03 11:18:46;;;;;;;;;2.00;2.00;;;;;33.77;31.84;101725.41;5055503;28;45524;-45
2023/10/03 11:21:12;;;;;;;;;6.25;2.00;;;;;34.72;30.40;101724.56;5076940;28;46219;-46
2023/10/03 11:23:37;;;;;;;;;3.00;2.75;;;;;36.40;29.07;101724.13;5076858;28;45660;-45
2023/10/03 11:26:04;;;;;;;;;3.75;2.25;;;;;36.56;28.31;101724.78;5077172;28;45406;-47
2023/10/03 11:28:44;;;;;;;;;5.00;2.20;;;;;36.09;29.11;101718.16;5077142;28;45305;-45
2023/10/03 11:31:13;;;;;;;;;1.80;1.60;;;;;35.70;28.39;101727.41;5076581;27;47041;-45